sensor_id;sensor_type;location;lat;lon;timestamp;P1;durP1;ratioP1;P2;durP2;ratioP2
71955;SDS011;59829;50.562;6.258;2022-07-29T00:07:25;3.42;;;1.52;;
71955;SDS011;59829;50.562;6.258;2022-07-29T00:17:25;2.85;;;1.58;;
71955;SDS011;59829;50.562;6.258;2022-07-29T00:27:26;2.85;;;1.42;;
71955;SDS011;59829;50.562;6.258;2022-07-29T00:37:26;6.13;;;2.00;;
71955;SDS011;59829;50.562;6.258;2022-07-29T00:47:29;4.35;;;1.80;;
71955;SDS011;59829;50.562;6.258;2022-07-29T00:57:29;3.13;;;1.80;;
71955;SDS011;59829;50.562;6.258;2022-07-29T01:07:30;5.97;;;1.70;;
71955;SDS011;59829;50.562;6.258;2022-07-29T01:17:42;6.03;;;2.10;;
71955;SDS011;59829;50.562;6.258;2022-07-29T01:38:19;2.83;;;1.67;;
71955;SDS011;59829;50.562;6.258;2022-07-29T01:48:31;3.72;;;1.90;;
71955;SDS011;59829;50.562;6.258;2022-07-29T01:58:40;4.70;;;1.85;;
71955;SDS011;59829;50.562;6.258;2022-07-29T02:08:45;3.92;;;1.83;;
71955;SDS011;59829;50.562;6.258;2022-07-29T02:18:51;4.47;;;1.73;;
71955;SDS011;59829;50.562;6.258;2022-07-29T02:28:56;3.65;;;1.70;;
71955;SDS011;59829;50.562;6.258;2022-07-29T02:38:58;3.23;;;1.77;;
71955;SDS011;59829;50.562;6.258;2022-07-29T02:49:09;4.67;;;2.03;;
71955;SDS011;59829;50.562;6.258;2022-07-29T02:59:14;3.85;;;1.48;;
71955;SDS011;59829;50.562;6.258;2022-07-29T03:09:24;4.82;;;1.77;;
71955;SDS011;59829;50.562;6.258;2022-07-29T03:19:31;6.22;;;2.10;;
71955;SDS011;59829;50.562;6.258;2022-07-29T09:38:09;4.43;;;2.57;;
71955;SDS011;59829;50.562;6.258;2022-07-29T10:20:36;5.18;;;2.85;;
71955;SDS011;59829;50.562;6.258;2022-07-29T10:31:02;7.05;;;3.00;;
71955;SDS011;59829;50.562;6.258;2022-07-29T11:03:21;5.40;;;2.70;;
71955;SDS011;59829;50.562;6.258;2022-07-29T12:07:51;6.07;;;3.13;;
71955;SDS011;59829;50.562;6.258;2022-07-29T12:18:17;6.53;;;2.78;;
71955;SDS011;59829;50.562;6.258;2022-07-29T12:28:45;6.57;;;2.67;;
71955;SDS011;59829;50.562;6.258;2022-07-29T12:38:55;7.78;;;3.00;;
71955;SDS011;59829;50.562;6.258;2022-07-29T12:48:59;9.00;;;3.00;;
71955;SDS011;59829;50.562;6.258;2022-07-29T12:59:00;5.43;;;3.00;;
71955;SDS011;59829;50.562;6.258;2022-07-29T13:30:42;6.72;;;3.38;;
71955;SDS011;59829;50.562;6.258;2022-07-29T13:41:30;8.98;;;4.13;;
71955;SDS011;59829;50.562;6.258;2022-07-29T14:34:57;6.43;;;3.25;;
71955;SDS011;59829;50.562;6.258;2022-07-29T14:45:25;6.93;;;3.60;;
71955;SDS011;59829;50.562;6.258;2022-07-29T15:16:32;7.10;;;3.72;;
71955;SDS011;59829;50.562;6.258;2022-07-29T21:03:37;6.43;;;3.45;;
71955;SDS011;59829;50.562;6.258;2022-07-29T21:13:45;6.53;;;3.00;;
71955;SDS011;59829;50.562;6.258;2022-07-29T21:23:54;6.05;;;2.90;;
71955;SDS011;59829;50.562;6.258;2022-07-29T21:34:05;5.65;;;3.05;;
71955;SDS011;59829;50.562;6.258;2022-07-29T21:44:07;6.32;;;3.30;;
71955;SDS011;59829;50.562;6.258;2022-07-29T21:54:07;5.60;;;3.00;;
71955;SDS011;59829;50.562;6.258;2022-07-29T22:04:08;5.22;;;2.80;;
71955;SDS011;59829;50.562;6.258;2022-07-29T22:14:08;8.43;;;3.72;;
71955;SDS011;59829;50.562;6.258;2022-07-29T22:24:09;7.07;;;3.53;;
71955;SDS011;59829;50.562;6.258;2022-07-29T22:34:10;6.47;;;3.70;;
71955;SDS011;59829;50.562;6.258;2022-07-29T22:44:13;6.85;;;3.67;;
71955;SDS011;59829;50.562;6.258;2022-07-29T22:54:13;5.97;;;3.40;;
71955;SDS011;59829;50.562;6.258;2022-07-29T23:04:14;6.70;;;3.60;;
71955;SDS011;59829;50.562;6.258;2022-07-29T23:14:14;6.07;;;3.20;;
71955;SDS011;59829;50.562;6.258;2022-07-29T23:24:15;7.03;;;3.83;;
71955;SDS011;59829;50.562;6.258;2022-07-29T23:34:15;9.15;;;3.67;;
71955;SDS011;59829;50.562;6.258;2022-07-29T23:44:15;8.20;;;3.45;;
71955;SDS011;59829;50.562;6.258;2022-07-29T23:54:16;6.47;;;3.40;;
